Time;durP1;ratioP1;P1;durP2;ratioP2;P2;SDS_P1;SDS_P2;PMS_P1;PMS_P2;Temp;Humidity;BMP_temperature;BMP_pressure;BME280_temperature;BME280_humidity;BME280_pressure;Samples;Min_cycle;Max_cycle;Signal;HPM_P1;HPM_P2
2022/01/22 00:01:18;;;;;;;16.10;5.82;;;2.00;99.90;;;;;;5010269;28;20168;-86
2022/01/22 00:03:53;;;;;;;8.07;5.75;;;2.00;99.90;;;;;;5010868;28;20049;-86
2022/01/22 00:06:19;;;;;;;12.05;7.55;;;2.10;99.90;;;;;;4993871;28;20033;-86
2022/01/22 00:08:44;;;;;;;8.27;5.35;;;2.20;99.90;;;;;;4993877;28;20500;-85
2022/01/22 00:11:11;;;;;;;7.75;5.20;;;2.20;99.90;;;;;;5011732;28;20030;-86
2022/01/22 00:16:21;;;;;;;10.57;5.55;;;2.30;99.90;;;;;;5011656;28;20080;-86
2022/01/22 00:18:46;;;;;;;11.57;5.78;;;2.40;99.90;;;;;;4993651;28;20021;-85
2022/01/22 00:21:14;;;;;;;10.02;5.75;;;2.40;99.90;;;;;;5011743;28;20601;-86
2022/01/22 00:23:47;;;;;;;8.38;5.38;;;2.40;99.90;;;;;;4993341;28;20637;-86
2022/01/22 00:26:13;;;;;;;11.05;6.00;;;2.40;99.90;;;;;;5011485;28;20017;-86
2022/01/22 00:28:48;;;;;;;11.63;5.38;;;2.40;99.90;;;;;;5010206;28;20050;-86
2022/01/22 00:31:17;;;;;;;7.47;5.13;;;2.50;99.90;;;;;;5011160;28;20104;-86
2022/01/22 00:33:49;;;;;;;9.65;4.95;;;2.50;99.90;;;;;;5010097;28;20066;-87
2022/01/22 00:36:23;;;;;;;8.70;4.55;;;2.60;99.90;;;;;;4993589;28;20519;-85
2022/01/22 00:38:49;;;;;;;7.15;5.03;;;2.70;99.90;;;;;;5006476;28;20040;-87
2022/01/22 00:41:15;;;;;;;11.55;5.18;;;2.70;99.90;;;;;;5011170;28;20030;-87
2022/01/22 00:43:41;;;;;;;9.35;4.88;;;2.80;99.90;;;;;;5009943;28;20125;-87
2022/01/22 00:46:07;;;;;;;9.95;4.68;;;2.80;99.90;;;;;;4986835;28;20025;-87
2022/01/22 00:48:33;;;;;;;9.77;5.05;;;2.80;99.90;;;;;;4993072;28;20030;-85
2022/01/22 00:51:00;;;;;;;9.00;4.85;;;2.90;99.90;;;;;;5010203;28;20404;-85
2022/01/22 00:53:32;;;;;;;6.53;4.55;;;2.90;99.90;;;;;;5009849;28;20045;-85
2022/01/22 00:55:58;;;;;;;9.45;4.75;;;3.00;99.90;;;;;;4993290;28;20026;-86
2022/01/22 00:58:24;;;;;;;6.40;4.72;;;3.00;99.90;;;;;;5009743;28;20034;-87
2022/01/22 01:00:50;;;;;;;9.75;5.22;;;3.10;99.90;;;;;;5010984;28;20029;-86
2022/01/22 01:03:16;;;;;;;10.52;5.47;;;3.20;99.90;;;;;;4992419;28;20038;-87
2022/01/22 01:05:45;;;;;;;8.43;5.10;;;3.20;99.90;;;;;;5011213;28;20033;-86
2022/01/22 01:08:11;;;;;;;8.32;4.30;;;3.20;99.90;;;;;;4992983;28;20112;-87
2022/01/22 01:10:37;;;;;;;8.13;4.45;;;3.20;99.90;;;;;;4990340;28;20121;-86
2022/01/22 01:13:05;;;;;;;9.00;5.10;;;3.20;99.90;;;;;;5010919;28;20034;-86
2022/01/22 01:32:19;;;;;;;8.95;4.65;;;3.00;99.90;;;;;;5010699;28;20476;-84
2022/01/22 01:34:50;;;;;;;6.05;4.07;;;3.00;99.90;;;;;;5010623;28;20037;-84
2022/01/22 01:37:18;;;;;;;6.55;4.38;;;3.00;99.90;;;;;;4988298;28;20579;-84
2022/01/22 01:39:54;;;;;;;7.65;5.00;;;3.00;99.90;;;;;;5010781;28;20029;-85
2022/01/22 01:43:17;;;;;;;8.02;4.57;;;3.10;99.90;;;;;;5010742;28;20084;-85
2022/01/22 01:45:10;;;;;;;7.55;4.30;;;3.10;99.90;;;;;;4999908;28;20030;-85
2022/01/22 01:47:38;;;;;;;10.63;4.63;;;3.10;99.90;;;;;;5010479;28;20077;-83
2022/01/22 01:50:06;;;;;;;8.07;4.47;;;3.00;99.90;;;;;;5007772;28;20026;-85
2022/01/22 01:52:40;;;;;;;7.53;4.88;;;3.00;99.90;;;;;;4988312;28;20533;-85
2022/01/22 01:55:49;;;;;;;8.10;4.50;;;3.00;99.90;;;;;;5008352;28;20112;-86
2022/01/22 01:57:59;;;;;;;8.10;4.55;;;3.10;99.90;;;;;;5007773;28;20046;-86
2022/01/22 02:00:26;;;;;;;7.25;4.43;;;3.20;99.90;;;;;;4996676;28;20084;-85
2022/01/22 02:02:53;;;;;;;10.57;4.97;;;3.20;99.90;;;;;;5014164;28;20042;-85
2022/01/22 02:05:21;;;;;;;7.55;4.43;;;3.20;99.90;;;;;;4994553;28;20034;-85
2022/01/22 02:07:48;;;;;;;11.65;4.97;;;3.10;99.90;;;;;;5011492;28;20032;-84
2022/01/22 02:10:20;;;;;;;9.95;4.32;;;3.10;99.90;;;;;;4996272;28;20060;-85
2022/01/22 02:26:06;;;;;;;9.40;4.90;;;3.30;99.90;;;;;;5007702;28;20038;-85
2022/01/22 02:28:33;;;;;;;9.15;5.10;;;3.30;99.90;;;;;;5013177;28;20046;-84
2022/01/22 02:31:09;;;;;;;6.40;4.40;;;3.20;99.90;;;;;;5014036;28;20048;-84
2022/01/22 02:36:26;;;;;;;9.70;4.90;;;3.30;99.90;;;;;;5011173;28;22052;-84
2022/01/22 02:39:04;;;;;;;8.07;4.72;;;3.30;99.90;;;;;;5009637;28;20036;-85
2022/01/22 02:41:33;;;;;;;6.75;4.20;;;3.30;99.90;;;;;;4996159;28;20105;-86
2022/01/22 02:44:02;;;;;;;7.32;4.45;;;3.30;99.90;;;;;;5013253;28;20033;-85
2022/01/22 02:46:31;;;;;;;6.25;4.45;;;3.40;99.90;;;;;;5012680;28;20049;-85
2022/01/22 02:48:57;;;;;;;11.68;4.90;;;3.40;99.90;;;;;;4995644;28;20033;-85
2022/01/22 02:51:24;;;;;;;10.57;4.25;;;3.40;99.90;;;;;;4996029;28;20113;-85
2022/01/22 02:53:57;;;;;;;7.25;5.07;;;3.40;99.90;;;;;;4991324;28;20084;-84
2022/01/22 02:56:26;;;;;;;6.65;4.72;;;3.40;99.90;;;;;;4995772;28;20049;-84
2022/01/22 02:58:59;;;;;;;5.07;3.65;;;3.50;99.90;;;;;;5009029;28;20521;-84
2022/01/22 03:01:26;;;;;;;7.57;4.40;;;3.50;99.90;;;;;;5012299;28;20030;-85
2022/01/22 03:03:52;;;;;;;9.23;4.35;;;3.60;99.90;;;;;;5012823;28;20113;-85
2022/01/22 03:06:21;;;;;;;6.20;4.05;;;3.60;99.90;;;;;;5013208;28;20117;-84
2022/01/22 03:08:48;;;;;;;6.40;4.00;;;3.70;99.90;;;;;;5011952;28;20116;-83
2022/01/22 03:11:43;;;;;;;7.07;3.83;;;3.70;99.90;;;;;;5013059;28;20037;-84
2022/01/22 03:17:13;;;;;;;7.55;4.03;;;3.80;99.90;;;;;;5012758;28;20026;-85
2022/01/22 03:22:41;;;;;;;6.72;3.80;;;3.90;99.90;;;;;;4988529;28;20036;-83
2022/01/22 03:28:01;;;;;;;8.63;4.03;;;4.00;99.90;;;;;;5010397;28;20041;-85
2022/01/22 03:30:30;;;;;;;8.80;4.28;;;3.90;99.90;;;;;;5010776;28;20045;-85
2022/01/22 03:32:56;;;;;;;4.18;3.40;;;3.90;99.90;;;;;;5012127;28;20499;-85
2022/01/22 03:35:26;;;;;;;6.72;3.88;;;3.90;99.90;;;;;;5012754;28;20469;-84
2022/01/22 03:37:57;;;;;;;7.63;4.32;;;3.90;99.90;;;;;;5012318;28;20034;-85
2022/01/22 03:40:31;;;;;;;7.00;4.28;;;4.00;99.90;;;;;;5012601;28;20026;-85
2022/01/22 03:42:57;;;;;;;5.63;3.67;;;4.00;99.90;;;;;;5012020;28;20026;-84
2022/01/22 03:45:24;;;;;;;9.70;4.60;;;3.90;99.90;;;;;;5012100;28;20030;-84
2022/01/22 03:47:50;;;;;;;13.40;8.95;;;3.80;99.90;;;;;;5011624;28;20076;-85
2022/01/22 03:50:20;;;;;;;8.68;5.00;;;3.60;99.90;;;;;;4994736;28;20061;-85
2022/01/22 03:52:48;;;;;;;8.25;4.32;;;3.50;99.90;;;;;;5011752;28;20124;-85
2022/01/22 03:55:45;;;;;;;6.82;4.22;;;3.30;99.90;;;;;;4993860;28;20480;-85
2022/01/22 03:58:11;;;;;;;7.03;3.58;;;3.20;99.90;;;;;;5011637;28;20048;-85
2022/01/22 04:00:37;;;;;;;6.70;3.72;;;3.20;99.90;;;;;;4994664;28;20033;-85
2022/01/22 04:08:46;;;;;;;10.18;3.60;;;3.10;99.90;;;;;;5012135;28;20044;-85
2022/01/22 04:11:15;;;;;;;6.47;3.60;;;3.00;99.90;;;;;;5011750;28;20080;-85
2022/01/22 04:13:50;;;;;;;7.07;3.80;;;2.90;99.90;;;;;;4993936;28;20040;-85
2022/01/22 04:16:27;;;;;;;5.43;3.85;;;3.00;99.90;;;;;;5009651;28;20022;-85
2022/01/22 04:27:24;;;;;;;6.60;3.47;;;2.70;99.90;;;;;;4998357;28;20076;-83
2022/01/22 04:29:58;;;;;;;7.40;3.67;;;2.50;99.90;;;;;;4992322;28;20097;-85
2022/01/22 04:32:28;;;;;;;4.95;3.60;;;2.40;99.90;;;;;;5011077;28;20076;-85
2022/01/22 04:35:01;;;;;;;10.82;3.95;;;2.40;99.90;;;;;;4992804;28;20022;-85
2022/01/22 04:37:27;;;;;;;7.47;3.50;;;2.30;99.90;;;;;;4993881;28;20108;-85
2022/01/22 04:39:59;;;;;;;5.93;3.63;;;2.20;99.90;;;;;;4993856;28;20029;-85
2022/01/22 04:42:29;;;;;;;5.15;4.07;;;2.10;99.90;;;;;;4992080;28;20036;-85
2022/01/22 04:45:00;;;;;;;5.18;3.65;;;2.00;99.90;;;;;;5010932;28;20084;-86
2022/01/22 04:47:47;;;;;;;12.27;4.25;;;2.00;99.90;;;;;;5011280;28;20030;-86
2022/01/22 04:55:58;;;;;;;8.25;3.88;;;1.90;99.90;;;;;;5011107;28;20018;-86
2022/01/22 04:58:24;;;;;;;6.15;3.85;;;1.90;99.90;;;;;;4993207;28;20037;-86
2022/01/22 05:00:50;;;;;;;4.90;3.90;;;1.90;99.90;;;;;;5011400;28;20033;-85
2022/01/22 05:03:37;;;;;;;5.07;3.80;;;1.90;99.90;;;;;;5010364;28;20046;-85
2022/01/22 05:06:06;;;;;;;6.80;4.03;;;1.80;99.90;;;;;;5010861;28;20045;-85
2022/01/22 05:08:35;;;;;;;8.32;4.03;;;1.80;99.90;;;;;;4993261;28;20033;-84
2022/01/22 05:11:01;;;;;;;8.93;4.40;;;1.90;99.90;;;;;;4993337;28;20120;-84
2022/01/22 05:13:26;;;;;;;5.45;3.97;;;1.80;99.90;;;;;;5010883;28;20116;-86
2022/01/22 05:15:56;;;;;;;7.95;3.83;;;1.90;99.90;;;;;;5011387;28;20026;-86
2022/01/22 05:18:22;;;;;;;5.65;4.18;;;1.90;99.90;;;;;;5010673;28;20025;-87
2022/01/22 05:20:59;;;;;;;5.90;3.88;;;1.90;99.90;;;;;;4993460;28;20038;-86
2022/01/22 05:23:26;;;;;;;6.10;4.25;;;1.80;99.90;;;;;;5010613;28;20045;-87
2022/01/22 05:26:01;;;;;;;6.55;4.38;;;1.80;99.90;;;;;;5011386;28;20022;-84
2022/01/22 05:39:10;;;;;;;12.32;7.57;;;1.70;99.90;;;;;;5009954;28;20384;-84
2022/01/22 05:41:40;;;;;;;9.38;6.22;;;1.70;99.90;;;;;;5014222;28;20018;-86
2022/01/22 05:44:24;;;;;;;6.85;4.97;;;1.80;99.90;;;;;;4996937;28;20030;-86
2022/01/22 05:46:57;;;;;;;9.93;6.47;;;1.80;99.90;;;;;;5014575;28;20184;-87
2022/01/22 05:49:28;;;;;;;10.35;6.43;;;1.70;99.90;;;;;;5013309;28;20500;-86
2022/01/22 05:52:02;;;;;;;10.95;6.68;;;1.80;99.90;;;;;;5014230;28;20033;-86
2022/01/22 05:59:42;;;;;;;9.23;5.68;;;1.70;99.90;;;;;;5013541;28;20033;-83
2022/01/22 06:02:18;;;;;;;10.77;6.43;;;1.80;99.90;;;;;;5010188;28;20412;-84
2022/01/22 06:04:54;;;;;;;8.60;5.55;;;1.80;99.90;;;;;;4996308;28;20033;-83
2022/01/22 06:07:23;;;;;;;9.25;6.18;;;1.80;99.90;;;;;;4996980;28;20034;-84
2022/01/22 06:10:15;;;;;;;9.70;5.63;;;1.70;99.90;;;;;;4990878;28;20046;-84
2022/01/22 06:15:37;;;;;;;11.00;6.38;;;1.60;99.90;;;;;;5015116;28;20144;-85
2022/01/22 06:18:16;;;;;;;9.30;6.57;;;1.60;99.90;;;;;;5013921;28;20507;-84
2022/01/22 06:20:41;;;;;;;8.85;5.53;;;1.60;99.90;;;;;;5014036;28;20112;-84
2022/01/22 06:23:08;;;;;;;11.73;6.38;;;1.50;99.90;;;;;;5011568;28;20104;-83
2022/01/22 06:25:34;;;;;;;15.45;7.53;;;1.50;99.90;;;;;;5003720;28;20031;-85
2022/01/22 06:28:01;;;;;;;14.00;7.85;;;1.50;99.90;;;;;;5013845;28;20026;-87
2022/01/22 06:30:30;;;;;;;15.68;8.35;;;1.60;99.90;;;;;;5013323;28;20037;-86
2022/01/22 06:32:59;;;;;;;13.23;8.38;;;1.60;99.90;;;;;;5013664;28;20515;-85
2022/01/22 06:35:25;;;;;;;11.50;7.97;;;1.60;99.90;;;;;;5015118;28;20038;-84
2022/01/22 06:37:51;;;;;;;17.13;8.48;;;1.60;99.90;;;;;;4996129;28;20508;-84
2022/01/22 06:42:46;;;;;;;16.25;8.23;;;1.60;99.90;;;;;;5008308;28;20029;-84
2022/01/22 06:45:11;;;;;;;12.50;8.00;;;1.60;99.90;;;;;;4994986;28;20030;-83
2022/01/22 06:47:52;;;;;;;16.63;8.07;;;1.60;99.90;;;;;;5010423;28;20384;-83
2022/01/22 06:50:19;;;;;;;13.27;7.72;;;1.60;99.90;;;;;;5011783;28;20033;-85
2022/01/22 06:52:46;;;;;;;15.48;8.73;;;1.60;99.90;;;;;;4994712;28;20409;-86
2022/01/22 06:55:15;;;;;;;14.25;7.70;;;1.60;99.90;;;;;;5013101;28;20469;-84
2022/01/22 06:57:41;;;;;;;11.88;7.95;;;1.60;99.90;;;;;;4990690;28;20042;-84
2022/01/22 07:00:08;;;;;;;12.18;7.50;;;1.60;99.90;;;;;;5013358;28;20540;-84
2022/01/22 07:02:34;;;;;;;15.88;8.45;;;1.60;99.90;;;;;;5012843;28;20409;-84
2022/01/22 07:04:59;;;;;;;15.10;7.60;;;1.60;99.90;;;;;;5013115;28;20033;-84
2022/01/22 07:07:25;;;;;;;18.90;8.43;;;1.50;99.90;;;;;;5012799;28;20029;-85
2022/01/22 07:09:51;;;;;;;16.35;8.63;;;1.50;99.90;;;;;;4995663;28;20511;-85
2022/01/22 07:12:17;;;;;;;12.60;8.05;;;1.60;99.90;;;;;;5009890;28;20033;-84
2022/01/22 07:14:45;;;;;;;15.45;8.77;;;1.60;99.90;;;;;;5013062;28;20472;-83
2022/01/22 07:17:12;;;;;;;21.13;9.10;;;1.60;99.90;;;;;;5012787;28;20041;-85
2022/01/22 07:19:42;;;;;;;14.10;8.95;;;1.60;99.90;;;;;;5010508;28;20065;-86
2022/01/22 07:22:33;;;;;;;16.38;9.43;;;1.60;99.90;;;;;;4995353;28;20026;-85
2022/01/22 07:25:00;;;;;;;16.00;10.70;;;1.70;99.90;;;;;;5012299;28;20033;-85
2022/01/22 07:27:26;;;;;;;19.85;10.05;;;1.80;99.90;;;;;;5012456;28;20957;-86
2022/01/22 07:29:55;;;;;;;16.17;10.38;;;1.90;99.90;;;;;;4995078;28;20026;-85
2022/01/22 07:32:32;;;;;;;15.38;9.40;;;2.00;99.90;;;;;;5012304;28;20451;-85
2022/01/22 07:34:58;;;;;;;13.48;9.00;;;2.10;99.90;;;;;;5012157;28;20105;-86
2022/01/22 07:37:24;;;;;;;15.40;8.50;;;2.20;99.90;;;;;;5012250;28;20112;-86
2022/01/22 07:39:50;;;;;;;13.45;8.38;;;2.30;99.90;;;;;;5012560;28;20026;-82
2022/01/22 07:42:16;;;;;;;17.67;10.65;;;2.40;99.90;;;;;;5012233;28;20041;-83
2022/01/22 07:44:41;;;;;;;22.05;11.18;;;2.50;99.90;;;;;;5012318;28;20037;-85
2022/01/22 07:47:07;;;;;;;20.20;10.27;;;2.60;99.90;;;;;;4994167;28;20037;-85
2022/01/22 07:49:33;;;;;;;18.13;9.73;;;2.70;99.90;;;;;;5012226;28;20030;-85
2022/01/22 07:51:58;;;;;;;19.25;11.75;;;2.80;99.90;;;;;;5013070;28;20077;-92
2022/01/22 07:54:24;;;;;;;18.95;12.32;;;2.90;99.90;;;;;;4994449;28;20026;-87
2022/01/22 07:56:50;;;;;;;22.80;12.07;;;3.00;99.90;;;;;;4995044;28;20040;-87
2022/01/22 07:59:16;;;;;;;24.20;12.45;;;3.00;99.90;;;;;;4996104;28;20030;-86
2022/01/22 08:01:41;;;;;;;23.25;11.52;;;3.10;99.90;;;;;;5010651;28;20058;-85
2022/01/22 08:04:07;;;;;;;17.67;10.68;;;3.10;99.90;;;;;;4993920;28;20022;-85
2022/01/22 08:06:33;;;;;;;39.97;19.63;;;3.20;99.90;;;;;;5011944;28;20022;-85
2022/01/22 08:08:59;;;;;;;21.42;13.05;;;3.30;99.90;;;;;;5015490;28;20112;-85
2022/01/22 08:11:24;;;;;;;25.63;12.65;;;3.40;99.90;;;;;;5012070;28;20030;-88
2022/01/22 08:13:50;;;;;;;26.30;12.98;;;3.50;99.90;;;;;;5010655;28;20033;-85
2022/01/22 08:16:16;;;;;;;36.35;26.73;;;3.50;99.90;;;;;;5011270;28;20029;-90
2022/01/22 08:18:42;;;;;;;30.55;16.05;;;3.60;99.90;;;;;;5011579;28;20032;-86
2022/01/22 08:21:10;;;;;;;52.38;29.73;;;3.70;99.90;;;;;;4994779;28;20037;-94
2022/01/22 08:23:36;;;;;;;44.88;23.55;;;3.90;99.90;;;;;;4989157;28;20632;-91
2022/01/22 08:26:06;;;;;;;57.50;33.38;;;4.00;99.90;;;;;;5009508;28;20105;-85
2022/01/22 08:31:25;;;;;;;31.55;21.67;;;4.30;99.90;;;;;;5010338;28;20524;-89
2022/01/22 08:36:36;;;;;;;23.40;13.07;;;4.50;99.90;;;;;;5011587;28;20037;-89
2022/01/22 08:39:02;;;;;;;18.20;12.27;;;4.60;99.90;;;;;;5011432;28;20026;-89
2022/01/22 08:41:28;;;;;;;17.60;10.93;;;4.70;99.90;;;;;;4994217;28;20441;-88
2022/01/22 08:43:58;;;;;;;26.67;12.05;;;4.80;99.90;;;;;;4994027;28;20122;-88
2022/01/22 08:46:24;;;;;;;23.50;11.68;;;4.90;99.90;;;;;;5008197;28;20052;-86
2022/01/22 08:48:49;;;;;;;23.45;12.63;;;5.00;99.90;;;;;;4994053;28;20087;-87
2022/01/22 08:51:15;;;;;;;20.95;12.02;;;5.10;99.90;;;;;;5011780;28;20022;-88
2022/01/22 08:53:41;;;;;;;24.13;12.70;;;5.10;99.90;;;;;;5011290;28;20040;-87
2022/01/22 08:56:09;;;;;;;25.30;12.45;;;5.20;99.90;;;;;;5011588;28;20060;-88
2022/01/22 08:58:36;;;;;;;35.00;17.05;;;5.30;99.90;;;;;;5010494;28;20034;-88
2022/01/22 09:01:02;;;;;;;43.50;17.15;;;5.40;99.90;;;;;;4988165;28;20393;-87
2022/01/22 09:03:31;;;;;;;96.72;46.95;;;5.50;99.90;;;;;;5010820;28;20096;-87
2022/01/22 09:05:59;;;;;;;33.97;19.65;;;5.60;99.90;;;;;;5010712;28;20579;-88
2022/01/22 09:08:25;;;;;;;49.33;21.70;;;5.60;99.90;;;;;;5010113;28;21830;-88
2022/01/22 09:10:52;;;;;;;67.30;30.85;;;5.70;99.90;;;;;;5006454;28;20397;-88
2022/01/22 09:13:21;;;;;;;51.47;26.25;;;5.90;99.90;;;;;;5009854;28;20046;-88
2022/01/22 09:15:47;;;;;;;27.58;15.35;;;6.00;99.90;;;;;;5010073;28;20689;-89
2022/01/22 09:18:13;;;;;;;34.53;18.08;;;6.00;99.90;;;;;;4996741;28;20120;-88
2022/01/22 09:23:12;;;;;;;84.13;38.35;;;6.10;99.90;;;;;;5012148;28;20022;-93
2022/01/22 09:25:49;;;;;;;34.55;19.08;;;6.20;99.90;;;;;;4992870;28;20476;-83
2022/01/22 09:28:15;;;;;;;27.98;14.98;;;6.20;99.90;;;;;;5009385;28;20033;-91
2022/01/22 09:30:55;;;;;;;36.47;19.83;;;6.30;99.90;;;;;;4991868;28;20444;-86
2022/01/22 09:33:23;;;;;;;35.38;20.88;;;6.40;99.90;;;;;;4991718;28;20054;-83
2022/01/22 09:35:49;;;;;;;51.78;27.80;;;6.50;99.90;;;;;;5012539;28;20362;-83
2022/01/22 09:38:18;;;;;;;66.55;32.03;;;6.50;99.90;;;;;;4991755;28;20106;-84
2022/01/22 09:40:43;;;;;;;46.75;22.70;;;6.60;99.90;;;;;;5010819;28;20072;-84
2022/01/22 09:43:17;;;;;;;47.53;22.05;;;6.70;99.90;;;;;;5009849;28;20022;-84
2022/01/22 09:45:58;;;;;;;41.15;22.42;;;6.90;99.90;;;;;;5010370;28;20800;-84
2022/01/22 09:48:26;;;;;;;102.07;44.25;;;6.90;99.90;;;;;;5009594;28;20119;-84
2022/01/22 09:50:56;;;;;;;312.52;119.75;;;7.00;99.90;;;;;;5002031;28;20489;-84
2022/01/22 09:53:21;;;;;;;79.03;36.75;;;7.10;99.90;;;;;;4992158;28;20030;-84
2022/01/22 09:55:47;;;;;;;85.25;35.00;;;7.20;99.90;;;;;;4988813;28;20118;-84
2022/01/22 09:58:23;;;;;;;291.90;121.32;;;7.40;99.90;;;;;;5008955;28;20026;-84
2022/01/22 10:00:49;;;;;;;73.68;35.22;;;7.40;99.90;;;;;;5008112;28;20030;-83
2022/01/22 10:03:20;;;;;;;30.15;17.42;;;7.40;99.90;;;;;;5004213;28;20056;-84
2022/01/22 10:05:47;;;;;;;245.57;110.95;;;7.40;99.90;;;;;;4984654;28;20453;-83
2022/01/22 10:08:31;;;;;;;115.05;62.60;;;7.50;99.90;;;;;;5009687;28;20448;-83
2022/01/22 10:10:59;;;;;;;83.65;42.05;;;7.50;99.90;;;;;;5009691;28;20084;-83
2022/01/22 10:13:44;;;;;;;67.15;39.03;;;7.60;99.90;;;;;;5009618;28;20801;-82
2022/01/22 10:16:11;;;;;;;27.98;17.10;;;7.70;99.90;;;;;;5006907;28;20520;-83
2022/01/22 10:18:40;;;;;;;27.65;15.20;;;7.80;99.90;;;;;;5013207;28;20528;-83
2022/01/22 10:21:11;;;;;;;31.52;16.13;;;8.00;99.90;;;;;;5014085;28;20157;-83
2022/01/22 10:24:12;;;;;;;26.60;16.05;;;8.10;99.90;;;;;;5011744;28;20096;-83
2022/01/22 10:26:44;;;;;;;31.20;16.70;;;8.00;99.90;;;;;;4966845;28;20030;-83
2022/01/22 10:29:10;;;;;;;26.63;15.95;;;8.10;99.90;;;;;;4996002;28;20038;-84
2022/01/22 10:32:02;;;;;;;25.40;14.98;;;8.10;99.90;;;;;;4992185;28;20049;-83
2022/01/22 10:35:09;;;;;;;29.65;17.20;;;8.00;99.90;;;;;;5007295;28;20093;-83
2022/01/22 10:37:36;;;;;;;108.88;55.08;;;7.80;99.90;;;;;;5013299;28;20041;-83
2022/01/22 10:40:36;;;;;;;28.40;16.98;;;7.90;99.90;;;;;;5013699;28;20032;-83
2022/01/22 10:43:50;;;;;;;28.33;17.10;;;8.10;99.90;;;;;;4995415;28;20081;-83
2022/01/22 10:46:43;;;;;;;31.27;15.27;;;8.30;99.90;;;;;;4936772;29;20031;-83
2022/01/22 10:49:21;;;;;;;25.25;14.15;;;8.40;99.90;;;;;;4950847;28;20031;-83
2022/01/22 10:51:59;;;;;;;26.75;16.30;;;8.60;99.90;;;;;;4994557;28;20408;-83
2022/01/22 10:54:30;;;;;;;30.48;16.80;;;8.70;99.90;;;;;;4989328;28;20048;-83
2022/01/22 10:57:13;;;;;;;22.70;15.07;;;8.80;99.90;;;;;;4995523;28;20036;-84
2022/01/22 10:59:58;;;;;;;;;;;9.00;99.90;;;;;;5011743;28;20152;-83
2022/01/22 11:02:38;;;;;;;23.98;15.80;;;9.10;99.90;;;;;;5010601;28;20234;-83
2022/01/22 11:05:25;;;;;;;32.95;18.65;;;9.20;99.90;;;;;;5010211;28;20413;-83
2022/01/22 11:08:13;;;;;;;32.67;16.52;;;9.20;99.90;;;;;;5007997;28;20076;-83
2022/01/22 11:10:44;;;;;;;20.80;13.07;;;9.40;99.90;;;;;;5012623;28;20022;-83
2022/01/22 11:13:19;;;;;;;27.83;16.20;;;9.50;99.90;;;;;;5011869;28;20040;-84
2022/01/22 11:15:51;;;;;;;47.20;23.15;;;9.50;99.90;;;;;;5008773;28;20054;-83
2022/01/22 11:18:22;;;;;;;41.10;17.95;;;9.60;99.90;;;;;;5012479;28;20018;-83
2022/01/22 11:20:58;;;;;;;21.40;13.50;;;9.70;99.90;;;;;;5011023;28;20084;-82
2022/01/22 11:23:27;;;;;;;25.70;13.80;;;9.70;99.90;;;;;;5012646;28;20032;-83
2022/01/22 11:26:00;;;;;;;32.15;17.08;;;9.70;99.90;;;;;;5012423;28;20014;-83
2022/01/22 11:28:26;;;;;;;;;;;9.70;99.90;;;;;;5010632;28;20041;-83
2022/01/22 11:31:02;;;;;;;20.23;13.00;;;9.70;99.90;;;;;;4995233;28;19906;-82
2022/01/22 11:33:32;;;;;;;41.55;21.45;;;9.60;99.90;;;;;;5009581;28;20571;-87
2022/01/22 11:36:40;;;;;;;27.27;16.23;;;9.50;99.90;;;;;;5013836;28;20033;-84
2022/01/22 11:39:30;;;;;;;31.67;17.00;;;9.70;99.90;;;;;;5008468;28;20038;-85
2022/01/22 11:42:08;;;;;;;55.40;27.95;;;9.80;99.90;;;;;;4989040;28;20037;-86
2022/01/22 11:44:49;;;;;;;24.90;13.80;;;9.90;99.90;;;;;;5011974;28;20029;-81
2022/01/22 11:47:29;;;;;;;22.30;12.68;;;10.10;99.90;;;;;;5012817;28;20108;-87
2022/01/22 11:50:13;;;;;;;22.15;13.90;;;10.10;99.90;;;;;;4996617;28;20037;-86
2022/01/22 11:53:19;;;;;;;25.27;13.98;;;10.00;99.90;;;;;;5007616;28;20034;-85
2022/01/22 11:56:11;;;;;;;30.33;14.32;;;9.80;99.90;;;;;;4997755;28;20042;-85
2022/01/22 11:58:55;;;;;;;25.27;13.93;;;9.60;99.90;;;;;;4993731;28;20484;-83
2022/01/22 12:02:13;;;;;;;;;;;;;;;;;;;;;
2022/01/22 12:04:45;;;;;;;16.52;10.75;;;9.40;99.90;;;;;;5015026;28;20036;-82
2022/01/22 12:07:16;;;;;;;17.60;11.23;;;9.50;98.30;;;;;;5019353;28;20022;-82
2022/01/22 12:10:18;;;;;;;25.05;11.93;;;9.40;99.90;;;;;;5012265;28;20025;-82
2022/01/22 12:15:20;;;;;;;20.45;11.63;;;9.80;97.30;;;;;;5016525;28;20020;-82
2022/01/22 12:17:56;;;;;;;22.42;11.02;;;9.80;96.90;;;;;;5015327;28;20069;-82
2022/01/22 12:23:34;;;;;;;28.08;15.05;;;9.70;99.90;;;;;;4985890;28;20034;-81
2022/01/22 12:26:07;;;;;;;27.15;14.07;;;9.40;99.90;;;;;;5010427;28;20060;-82
2022/01/22 12:28:44;;;;;;;25.25;14.00;;;9.20;99.90;;;;;;5011143;28;20117;-81
2022/01/22 12:31:14;;;;;;;31.20;16.42;;;9.00;99.90;;;;;;5011287;28;20025;-82
2022/01/22 12:33:40;;;;;;;25.38;16.02;;;9.00;99.90;;;;;;5012446;28;20504;-82
2022/01/22 12:36:12;;;;;;;24.45;15.25;;;9.60;99.90;;;;;;5017350;28;20030;-81
2022/01/22 12:44:35;;;;;;;52.20;27.83;;;13.10;99.90;;;;;;5006875;28;20083;-83
2022/01/22 12:47:10;;;;;;;53.95;33.47;;;13.90;99.90;;;;;;5009278;28;20113;-83
2022/01/22 12:49:36;;;;;;;58.13;35.35;;;13.40;99.90;;;;;;4993433;28;20062;-83
2022/01/22 12:52:19;;;;;;;61.13;38.00;;;12.70;99.90;;;;;;5014218;28;20498;-83
2022/01/22 12:54:55;;;;;;;61.20;37.10;;;12.30;99.90;;;;;;5013346;28;20044;-83
2022/01/22 12:57:24;;;;;;;62.03;37.55;;;12.10;99.90;;;;;;4995260;28;20033;-83
2022/01/22 13:02:44;;;;;;;71.15;41.08;;;12.10;99.90;;;;;;5021056;28;20049;-82
2022/01/22 13:05:15;;;;;;;72.63;40.03;;;11.70;99.90;;;;;;5022619;28;20030;-83
2022/01/22 13:07:45;;;;;;;66.30;39.70;;;11.80;99.90;;;;;;5024108;28;20029;-83
2022/01/22 13:10:13;;;;;;;69.30;38.10;;;11.90;99.90;;;;;;5026517;28;20064;-83
2022/01/22 13:13:17;;;;;;;75.53;40.05;;;12.20;99.90;;;;;;5011047;28;20381;-83
2022/01/22 13:15:46;;;;;;;75.22;39.13;;;12.00;99.90;;;;;;4911539;29;20028;-83
2022/01/22 13:18:15;;;;;;;68.55;38.63;;;11.70;99.90;;;;;;5006072;28;20033;-82
2022/01/22 13:20:45;;;;;;;66.45;40.05;;;11.60;99.90;;;;;;5031121;28;20187;-83
2022/01/22 13:23:19;;;;;;;72.40;41.40;;;11.60;99.90;;;;;;5012511;28;20095;-82
2022/01/22 13:25:55;;;;;;;67.63;39.83;;;11.60;99.90;;;;;;5013427;28;20071;-83
2022/01/22 13:28:33;;;;;;;68.90;40.22;;;12.00;99.90;;;;;;5029401;28;20033;-84
2022/01/22 13:31:08;;;;;;;67.63;38.15;;;12.00;99.90;;;;;;5029774;28;20642;-84
2022/01/22 13:33:52;;;;;;;68.35;38.90;;;12.30;99.90;;;;;;5030298;28;20423;-81
2022/01/22 13:50:02;;;;;;;74.32;38.63;;;13.60;99.90;;;;;;5028305;28;20464;-85
2022/01/22 13:52:29;;;;;;;75.65;38.58;;;13.50;99.90;;;;;;5013996;28;20048;-85
2022/01/22 13:55:00;;;;;;;73.60;43.03;;;13.80;99.90;;;;;;5015974;28;20032;-87
2022/01/22 13:57:44;;;;;;;97.82;48.30;;;13.70;99.90;;;;;;5013663;28;20083;-85
2022/01/22 14:00:13;;;;;;;74.95;43.67;;;14.00;99.90;;;;;;5013590;28;20036;-85
2022/01/22 14:03:20;;;;;;;92.18;49.92;;;13.90;99.90;;;;;;5032832;28;20045;-83
2022/01/22 14:05:52;;;;;;;73.30;40.33;;;13.00;99.90;;;;;;5034924;28;20056;-84
2022/01/22 14:08:56;;;;;;;;;;;13.20;99.90;;;;;;5034254;28;20032;-83
2022/01/22 14:11:15;;;;;;;76.50;39.90;;;13.30;99.90;;;;;;5029089;28;20000;-82
2022/01/22 14:13:50;;;;;;;86.30;44.20;;;13.60;99.90;;;;;;5032264;28;20381;-85
2022/01/22 14:16:22;;;;;;;82.90;41.70;;;13.20;99.90;;;;;;5034131;28;20029;-86
2022/01/22 14:18:49;;;;;;;83.00;43.53;;;13.00;99.90;;;;;;5033350;28;20025;-84
2022/01/22 14:21:23;;;;;;;79.97;41.05;;;12.70;99.90;;;;;;5034894;28;20133;-85
2022/01/22 14:23:50;;;;;;;78.25;40.00;;;12.60;99.90;;;;;;5015388;28;20041;-85
2022/01/22 14:26:28;;;;;;;79.35;40.22;;;12.00;99.90;;;;;;5016117;28;20052;-86
2022/01/22 14:29:17;;;;;;;82.70;42.13;;;12.00;99.90;;;;;;5022747;28;20033;-85
2022/01/22 14:31:57;;;;;;;80.93;41.20;;;11.70;99.90;;;;;;5026135;28;20029;-85
2022/01/22 14:34:46;;;;;;;71.95;41.17;;;11.10;99.90;;;;;;5014405;28;20033;-85
2022/01/22 14:37:38;;;;;;;95.57;49.20;;;10.30;99.90;;;;;;5015937;28;20028;-85
2022/01/22 14:45:34;;;;;;;75.40;41.22;;;8.90;99.90;;;;;;5033862;28;20530;-88
2022/01/22 14:48:06;;;;;;;105.88;48.55;;;8.70;99.90;;;;;;5018558;28;20120;-86
2022/01/22 14:50:32;;;;;;;97.53;46.40;;;8.80;99.90;;;;;;5016010;28;20022;-84
2022/01/22 14:53:00;;;;;;;93.15;44.53;;;8.80;99.90;;;;;;5014286;28;20026;-83
2022/01/22 14:55:29;;;;;;;87.68;43.33;;;8.80;99.90;;;;;;5032451;28;20029;-85
2022/01/22 14:58:16;;;;;;;88.78;45.08;;;8.60;99.90;;;;;;5033038;28;20112;-84
2022/01/22 15:00:42;;;;;;;84.38;44.00;;;8.60;99.90;;;;;;5033511;28;20108;-82
2022/01/22 15:03:17;;;;;;;87.60;45.25;;;8.30;99.90;;;;;;5031400;28;20504;-81
2022/01/22 15:05:43;;;;;;;88.97;46.28;;;8.10;99.90;;;;;;5033792;28;20029;-85
2022/01/22 15:08:09;;;;;;;103.32;47.47;;;7.90;99.90;;;;;;5032405;28;20029;-82
2022/01/22 15:10:41;;;;;;;89.65;46.40;;;7.90;99.90;;;;;;5033252;28;20033;-83
2022/01/22 15:13:10;;;;;;;112.25;49.53;;;7.90;99.90;;;;;;5032200;28;20040;-83
2022/01/22 15:15:42;;;;;;;87.57;46.00;;;7.70;99.90;;;;;;5015530;28;20084;-83
2022/01/22 15:18:13;;;;;;;97.13;47.97;;;7.70;99.90;;;;;;5016266;28;20026;-87